RRR109 EGED-EGPE

Flight info

Callsign RRR109
Flight time N/A
Altitude 6000
Route WIK
Aircraft A109/L-SDFGRY/C

Departure

Time 2026-04-17 05:54
Airport Eday Airport (EGED)

Arrival

Time N/A
Airport Inverness Airport (EGPE)
Time Latitude Longitude Altitude Speed Heading
2026-04-17 05:50 59.19236 -2.76920 15 ft 0 kts
2026-04-17 05:53 59.19247 -2.76934 38 ft 8 kts 11°
2026-04-17 05:53 59.19418 -2.77031 169 ft 40 kts 357°
2026-04-17 05:54 59.19753 -2.77161 449 ft 59 kts 314°
2026-04-17 05:54 59.20131 -2.77566 649 ft 66 kts 278°
2026-04-17 05:54 59.20326 -2.78407 730 ft 79 kts 229°
2026-04-17 05:54 59.20018 -2.79292 760 ft 89 kts 201°
2026-04-17 05:55 59.19394 -2.79731 792 ft 97 kts 186°
2026-04-17 05:55 59.18722 -2.79572 969 ft 98 kts 164°
2026-04-17 05:55 59.18051 -2.79543 1154 ft 97 kts 186°
2026-04-17 05:55 59.17398 -2.79823 1358 ft 96 kts 188°
2026-04-17 05:56 59.16754 -2.80097 1564 ft 95 kts 189°
2026-04-17 05:56 59.16105 -2.80374 1769 ft 94 kts 189°
2026-04-17 05:56 59.15476 -2.80643 1970 ft 94 kts 189°
2026-04-17 05:56 59.14837 -2.80920 2174 ft 95 kts 189°
2026-04-17 05:57 59.14186 -2.81197 2381 ft 96 kts 189°
2026-04-17 05:57 59.13528 -2.81482 2587 ft 98 kts 189°
2026-04-17 05:57 59.12853 -2.81771 2788 ft 99 kts 189°
2026-04-17 05:57 59.12175 -2.82063 2991 ft 100 kts 189°
2026-04-17 05:58 59.11488 -2.82361 3200 ft 102 kts 189°
2026-04-17 05:58 59.10798 -2.82653 3403 ft 103 kts 189°
2026-04-17 05:58 59.10098 -2.82953 3607 ft 104 kts 189°
2026-04-17 05:59 59.08685 -2.83561 4016 ft 104 kts 189°
2026-04-17 05:59 59.07975 -2.83864 4220 ft 105 kts 189°
2026-04-17 05:59 59.07264 -2.84169 4419 ft 106 kts 190°
2026-04-17 05:59 59.06543 -2.84481 4626 ft 106 kts 190°
2026-04-17 06:00 59.05820 -2.84793 4825 ft 107 kts 189°
2026-04-17 06:00 59.05089 -2.85103 5031 ft 108 kts 189°
2026-04-17 06:00 59.04345 -2.85421 5234 ft 108 kts 190°
2026-04-17 06:00 59.03604 -2.85739 5440 ft 108 kts 189°
2026-04-17 06:01 59.02862 -2.86058 5627 ft 109 kts 189°
2026-04-17 06:01 59.02108 -2.86383 5729 ft 110 kts 189°
2026-04-17 06:01 59.01364 -2.86701 5767 ft 111 kts 189°
2026-04-17 06:01 59.00608 -2.87023 5779 ft 110 kts 189°
2026-04-17 06:02 58.99860 -2.87343 5862 ft 110 kts 189°
2026-04-17 06:02 58.99107 -2.87663 5909 ft 110 kts 189°
2026-04-17 06:02 58.98318 -2.87998 5899 ft 128 kts 191°
2026-04-17 06:02 58.97390 -2.88380 5935 ft 138 kts 190°
2026-04-17 06:03 58.96431 -2.88795 5945 ft 143 kts 190°
2026-04-17 06:03 58.95462 -2.89210 5954 ft 143 kts 190°
2026-04-17 06:03 58.94482 -2.89628 5956 ft 142 kts 191°
2026-04-17 06:03 58.93525 -2.90038 5955 ft 142 kts 191°
2026-04-17 06:04 58.92549 -2.90453 5960 ft 142 kts 191°
2026-04-17 06:04 58.91595 -2.90863 5959 ft 142 kts 192°
2026-04-17 06:04 58.90621 -2.91272 5955 ft 143 kts 191°
2026-04-17 06:04 58.89656 -2.91683 5955 ft 144 kts 191°
2026-04-17 06:05 58.88674 -2.92086 5964 ft 143 kts 191°
2026-04-17 06:05 58.87695 -2.92501 5959 ft 142 kts 191°
2026-04-17 06:05 58.86719 -2.92918 5958 ft 142 kts 191°
2026-04-17 06:05 58.85758 -2.93326 5957 ft 142 kts 191°
2026-04-17 06:06 58.84782 -2.93740 5964 ft 142 kts 191°
2026-04-17 06:06 58.83814 -2.94149 5961 ft 143 kts 190°
2026-04-17 06:06 58.82846 -2.94560 5958 ft 143 kts 191°
2026-04-17 06:06 58.81864 -2.94973 5957 ft 143 kts 190°
2026-04-17 06:07 58.80900 -2.95380 5956 ft 142 kts 191°
2026-04-17 06:07 58.79934 -2.95789 5957 ft 142 kts 190°
2026-04-17 06:07 58.78958 -2.96199 5957 ft 143 kts 190°
2026-04-17 06:07 58.77978 -2.96613 5960 ft 144 kts 190°
2026-04-17 06:08 58.77011 -2.97022 5957 ft 143 kts 191°
2026-04-17 06:08 58.76039 -2.97433 5950 ft 143 kts 191°
2026-04-17 06:08 58.75064 -2.97843 5948 ft 143 kts 191°
2026-04-17 06:08 58.74088 -2.98256 5947 ft 143 kts 191°
2026-04-17 06:09 58.73120 -2.98662 5950 ft 142 kts 191°
2026-04-17 06:09 58.72150 -2.99074 5950 ft 142 kts 191°
2026-04-17 06:09 58.71181 -2.99483 5957 ft 143 kts 191°
2026-04-17 06:09 58.70214 -2.99886 5958 ft 143 kts 191°
2026-04-17 06:10 58.69243 -3.00292 5960 ft 143 kts 192°
2026-04-17 06:10 58.68266 -3.00703 5960 ft 142 kts 190°
2026-04-17 06:10 58.67267 -3.01118 5952 ft 143 kts 190°
2026-04-17 06:10 58.66305 -3.01521 5948 ft 143 kts 191°
2026-04-17 06:11 58.65321 -3.01937 5954 ft 143 kts 191°
2026-04-17 06:11 58.64351 -3.02352 5949 ft 142 kts 192°
2026-04-17 06:11 58.63383 -3.02747 5951 ft 143 kts 191°
2026-04-17 06:11 58.62398 -3.03160 5953 ft 144 kts 190°
2026-04-17 06:12 58.61418 -3.03567 5957 ft 144 kts 190°
2026-04-17 06:12 58.60436 -3.03980 5958 ft 143 kts 191°
2026-04-17 06:12 58.59466 -3.04385 5951 ft 143 kts 192°
2026-04-17 06:12 58.58499 -3.04790 5948 ft 142 kts 192°
2026-04-17 06:13 58.57531 -3.05194 5947 ft 142 kts 192°
2026-04-17 06:13 58.56560 -3.05599 5951 ft 142 kts 191°
2026-04-17 06:13 58.55590 -3.06002 5950 ft 142 kts 192°
2026-04-17 06:13 58.54625 -3.06405 5956 ft 142 kts 192°
2026-04-17 06:14 58.53655 -3.06808 5962 ft 142 kts 192°
2026-04-17 06:14 58.52684 -3.07214 5964 ft 141 kts 191°
2026-04-17 06:14 58.51732 -3.07607 5965 ft 142 kts 191°
2026-04-17 06:14 58.50763 -3.08008 5965 ft 142 kts 192°
2026-04-17 06:15 58.49789 -3.08414 5965 ft 143 kts 192°
2026-04-17 06:15 58.48809 -3.08820 5965 ft 142 kts 191°
2026-04-17 06:15 58.47842 -3.09222 5962 ft 142 kts 192°
2026-04-17 06:15 58.46880 -3.09620 5961 ft 142 kts 192°
2026-04-17 06:16 58.46234 -3.09905 5961 ft 142 kts 195°
2026-04-17 06:16 58.45026 -3.10918 5960 ft 142 kts 208°
2026-04-17 06:16 58.44176 -3.11849 5959 ft 142 kts 207°
2026-04-17 06:16 58.43306 -3.12768 5955 ft 142 kts 207°
2026-04-17 06:17 58.42439 -3.13690 5954 ft 143 kts 207°
2026-04-17 06:17 58.41563 -3.14620 5952 ft 142 kts 207°
2026-04-17 06:17 58.40696 -3.15539 5951 ft 142 kts 207°
2026-04-17 06:17 58.39835 -3.16454 5947 ft 142 kts 207°
2026-04-17 06:18 58.38968 -3.17372 5948 ft 143 kts 207°
2026-04-17 06:18 58.38097 -3.18294 5950 ft 143 kts 207°
2026-04-17 06:18 58.37225 -3.19215 5947 ft 143 kts 207°